sensor_id;sensor_type;location;lat;lon;timestamp;P1;durP1;ratioP1;P2;durP2;ratioP2
4466;SDS011;2246;42.664;23.278;2023-03-01T00:01:24;6.40;;;3.58;;
4466;SDS011;2246;42.664;23.278;2023-03-01T00:03:50;5.63;;;3.95;;
4466;SDS011;2246;42.664;23.278;2023-03-01T00:06:16;6.25;;;3.83;;
4466;SDS011;2246;42.664;23.278;2023-03-01T00:08:43;5.35;;;3.30;;
4466;SDS011;2246;42.664;23.278;2023-03-01T00:11:22;8.88;;;3.80;;
4466;SDS011;2246;42.664;23.278;2023-03-01T00:13:49;4.72;;;3.65;;
4466;SDS011;2246;42.664;23.278;2023-03-01T00:16:20;6.70;;;3.75;;
4466;SDS011;2246;42.664;23.278;2023-03-01T00:18:47;6.28;;;3.50;;
4466;SDS011;2246;42.664;23.278;2023-03-01T00:21:13;5.70;;;3.70;;
4466;SDS011;2246;42.664;23.278;2023-03-01T00:23:39;5.93;;;3.45;;
4466;SDS011;2246;42.664;23.278;2023-03-01T00:26:06;7.30;;;3.45;;
4466;SDS011;2246;42.664;23.278;2023-03-01T00:28:32;3.83;;;2.90;;
4466;SDS011;2246;42.664;23.278;2023-03-01T00:31:09;4.30;;;2.97;;
4466;SDS011;2246;42.664;23.278;2023-03-01T00:33:35;5.65;;;3.60;;
4466;SDS011;2246;42.664;23.278;2023-03-01T00:36:02;5.43;;;3.22;;
4466;SDS011;2246;42.664;23.278;2023-03-01T00:38:28;4.43;;;2.92;;
4466;SDS011;2246;42.664;23.278;2023-03-01T00:40:55;5.43;;;3.10;;
4466;SDS011;2246;42.664;23.278;2023-03-01T00:43:21;5.32;;;3.25;;
4466;SDS011;2246;42.664;23.278;2023-03-01T00:45:47;4.90;;;2.80;;
4466;SDS011;2246;42.664;23.278;2023-03-01T00:48:13;3.80;;;2.97;;
4466;SDS011;2246;42.664;23.278;2023-03-01T00:50:39;4.22;;;2.80;;
4466;SDS011;2246;42.664;23.278;2023-03-01T00:53:05;4.80;;;3.20;;
4466;SDS011;2246;42.664;23.278;2023-03-01T00:55:31;5.25;;;3.38;;
4466;SDS011;2246;42.664;23.278;2023-03-01T00:57:57;5.70;;;3.13;;
4466;SDS011;2246;42.664;23.278;2023-03-01T01:00:23;4.22;;;2.45;;
4466;SDS011;2246;42.664;23.278;2023-03-01T01:02:52;6.85;;;3.17;;
4466;SDS011;2246;42.664;23.278;2023-03-01T01:05:18;3.97;;;2.78;;
4466;SDS011;2246;42.664;23.278;2023-03-01T01:07:45;4.00;;;2.78;;
4466;SDS011;2246;42.664;23.278;2023-03-01T01:10:11;3.95;;;2.78;;
4466;SDS011;2246;42.664;23.278;2023-03-01T01:12:42;3.13;;;2.50;;
4466;SDS011;2246;42.664;23.278;2023-03-01T01:15:08;3.97;;;2.70;;
4466;SDS011;2246;42.664;23.278;2023-03-01T01:17:38;4.82;;;2.72;;
4466;SDS011;2246;42.664;23.278;2023-03-01T01:20:04;3.17;;;2.10;;
4466;SDS011;2246;42.664;23.278;2023-03-01T01:22:30;4.05;;;2.75;;
4466;SDS011;2246;42.664;23.278;2023-03-01T01:24:56;4.80;;;2.42;;
4466;SDS011;2246;42.664;23.278;2023-03-01T01:27:22;3.70;;;2.53;;
4466;SDS011;2246;42.664;23.278;2023-03-01T01:29:48;3.85;;;2.45;;
4466;SDS011;2246;42.664;23.278;2023-03-01T01:32:14;3.30;;;2.40;;
4466;SDS011;2246;42.664;23.278;2023-03-01T01:34:40;3.17;;;2.28;;
4466;SDS011;2246;42.664;23.278;2023-03-01T01:37:06;2.72;;;2.00;;
4466;SDS011;2246;42.664;23.278;2023-03-01T01:39:33;2.60;;;2.05;;
4466;SDS011;2246;42.664;23.278;2023-03-01T01:42:00;3.03;;;2.05;;
4466;SDS011;2246;42.664;23.278;2023-03-01T01:44:27;2.35;;;2.08;;
4466;SDS011;2246;42.664;23.278;2023-03-01T01:51:46;4.50;;;1.80;;
4466;SDS011;2246;42.664;23.278;2023-03-01T01:54:20;2.53;;;1.70;;
4466;SDS011;2246;42.664;23.278;2023-03-01T01:56:52;2.25;;;1.63;;
4466;SDS011;2246;42.664;23.278;2023-03-01T01:59:20;2.30;;;1.60;;
4466;SDS011;2246;42.664;23.278;2023-03-01T02:01:49;2.22;;;1.58;;
4466;SDS011;2246;42.664;23.278;2023-03-01T02:04:15;2.47;;;1.52;;
4466;SDS011;2246;42.664;23.278;2023-03-01T02:06:44;2.25;;;1.75;;
4466;SDS011;2246;42.664;23.278;2023-03-01T02:09:12;1.40;;;1.27;;
4466;SDS011;2246;42.664;23.278;2023-03-01T02:11:39;2.17;;;1.73;;
4466;SDS011;2246;42.664;23.278;2023-03-01T02:14:05;2.45;;;1.80;;
4466;SDS011;2246;42.664;23.278;2023-03-01T02:16:31;2.22;;;1.42;;
4466;SDS011;2246;42.664;23.278;2023-03-01T02:18:58;2.22;;;1.70;;
4466;SDS011;2246;42.664;23.278;2023-03-01T02:26:51;2.30;;;1.77;;
4466;SDS011;2246;42.664;23.278;2023-03-01T02:29:18;2.03;;;1.63;;
4466;SDS011;2246;42.664;23.278;2023-03-01T02:31:44;1.45;;;1.35;;
4466;SDS011;2246;42.664;23.278;2023-03-01T02:34:20;2.05;;;1.67;;
4466;SDS011;2246;42.664;23.278;2023-03-01T02:36:47;1.98;;;1.60;;
4466;SDS011;2246;42.664;23.278;2023-03-01T02:39:18;2.13;;;1.92;;
4466;SDS011;2246;42.664;23.278;2023-03-01T02:41:46;2.05;;;1.75;;
4466;SDS011;2246;42.664;23.278;2023-03-01T02:44:13;2.85;;;1.80;;
4466;SDS011;2246;42.664;23.278;2023-03-01T02:46:52;3.42;;;1.90;;
4466;SDS011;2246;42.664;23.278;2023-03-01T02:54:39;1.98;;;1.77;;
4466;SDS011;2246;42.664;23.278;2023-03-01T02:57:06;2.33;;;1.77;;
4466;SDS011;2246;42.664;23.278;2023-03-01T02:59:33;2.55;;;2.08;;
4466;SDS011;2246;42.664;23.278;2023-03-01T03:02:04;2.28;;;2.00;;
4466;SDS011;2246;42.664;23.278;2023-03-01T03:04:30;2.60;;;2.17;;
4466;SDS011;2246;42.664;23.278;2023-03-01T03:06:57;3.40;;;2.30;;
4466;SDS011;2246;42.664;23.278;2023-03-01T03:09:23;2.45;;;2.17;;
4466;SDS011;2246;42.664;23.278;2023-03-01T03:11:49;3.40;;;2.50;;
4466;SDS011;2246;42.664;23.278;2023-03-01T03:14:16;4.28;;;2.78;;
4466;SDS011;2246;42.664;23.278;2023-03-01T03:16:43;3.92;;;3.15;;
4466;SDS011;2246;42.664;23.278;2023-03-01T03:19:09;5.88;;;3.85;;
4466;SDS011;2246;42.664;23.278;2023-03-01T03:24:11;4.07;;;3.47;;
4466;SDS011;2246;42.664;23.278;2023-03-01T03:26:38;5.20;;;3.88;;
4466;SDS011;2246;42.664;23.278;2023-03-01T03:29:04;4.60;;;3.30;;
4466;SDS011;2246;42.664;23.278;2023-03-01T03:31:30;5.60;;;3.63;;
4466;SDS011;2246;42.664;23.278;2023-03-01T03:33:56;5.18;;;3.47;;
4466;SDS011;2246;42.664;23.278;2023-03-01T03:36:24;5.78;;;4.30;;
4466;SDS011;2246;42.664;23.278;2023-03-01T03:38:50;5.30;;;3.58;;
4466;SDS011;2246;42.664;23.278;2023-03-01T03:41:16;7.75;;;4.28;;
4466;SDS011;2246;42.664;23.278;2023-03-01T03:43:42;7.72;;;4.43;;
4466;SDS011;2246;42.664;23.278;2023-03-01T03:46:09;6.93;;;4.38;;
4466;SDS011;2246;42.664;23.278;2023-03-01T03:48:36;6.03;;;4.45;;
4466;SDS011;2246;42.664;23.278;2023-03-01T03:51:03;6.47;;;3.75;;
4466;SDS011;2246;42.664;23.278;2023-03-01T03:53:32;5.70;;;3.70;;
4466;SDS011;2246;42.664;23.278;2023-03-01T03:55:58;5.75;;;3.58;;
4466;SDS011;2246;42.664;23.278;2023-03-01T03:58:25;8.00;;;3.95;;
4466;SDS011;2246;42.664;23.278;2023-03-01T04:00:52;5.00;;;3.33;;
4466;SDS011;2246;42.664;23.278;2023-03-01T04:03:18;6.13;;;3.60;;
4466;SDS011;2246;42.664;23.278;2023-03-01T04:05:45;4.75;;;3.58;;
4466;SDS011;2246;42.664;23.278;2023-03-01T04:08:12;5.20;;;3.30;;
4466;SDS011;2246;42.664;23.278;2023-03-01T04:10:39;4.18;;;2.83;;
4466;SDS011;2246;42.664;23.278;2023-03-01T04:13:06;5.18;;;3.60;;
4466;SDS011;2246;42.664;23.278;2023-03-01T04:15:32;4.38;;;2.63;;
4466;SDS011;2246;42.664;23.278;2023-03-01T04:17:59;5.22;;;2.92;;
4466;SDS011;2246;42.664;23.278;2023-03-01T04:20:29;4.70;;;2.80;;
4466;SDS011;2246;42.664;23.278;2023-03-01T04:22:59;5.90;;;3.10;;
4466;SDS011;2246;42.664;23.278;2023-03-01T04:25:38;4.72;;;2.70;;
4466;SDS011;2246;42.664;23.278;2023-03-01T04:28:05;4.60;;;2.83;;
4466;SDS011;2246;42.664;23.278;2023-03-01T04:30:31;5.30;;;2.85;;
4466;SDS011;2246;42.664;23.278;2023-03-01T04:33:01;3.88;;;2.90;;
4466;SDS011;2246;42.664;23.278;2023-03-01T04:35:28;4.22;;;2.53;;
4466;SDS011;2246;42.664;23.278;2023-03-01T04:37:54;6.80;;;3.38;;
4466;SDS011;2246;42.664;23.278;2023-03-01T04:40:20;5.13;;;3.33;;
4466;SDS011;2246;42.664;23.278;2023-03-01T04:42:46;5.95;;;3.47;;
4466;SDS011;2246;42.664;23.278;2023-03-01T04:45:12;4.97;;;3.35;;
4466;SDS011;2246;42.664;23.278;2023-03-01T04:47:39;5.70;;;3.03;;
4466;SDS011;2246;42.664;23.278;2023-03-01T04:50:06;5.93;;;3.42;;
4466;SDS011;2246;42.664;23.278;2023-03-01T04:52:32;7.47;;;3.40;;
4466;SDS011;2246;42.664;23.278;2023-03-01T04:54:59;5.35;;;3.17;;
4466;SDS011;2246;42.664;23.278;2023-03-01T04:57:25;5.38;;;3.53;;
4466;SDS011;2246;42.664;23.278;2023-03-01T04:59:51;5.78;;;3.70;;
4466;SDS011;2246;42.664;23.278;2023-03-01T05:02:17;8.50;;;3.17;;
4466;SDS011;2246;42.664;23.278;2023-03-01T05:04:43;5.88;;;3.50;;
4466;SDS011;2246;42.664;23.278;2023-03-01T05:07:09;5.78;;;3.22;;
4466;SDS011;2246;42.664;23.278;2023-03-01T05:09:38;8.23;;;3.30;;
4466;SDS011;2246;42.664;23.278;2023-03-01T05:12:04;6.78;;;3.05;;
4466;SDS011;2246;42.664;23.278;2023-03-01T05:14:30;4.70;;;3.00;;
4466;SDS011;2246;42.664;23.278;2023-03-01T05:16:56;5.03;;;2.75;;
4466;SDS011;2246;42.664;23.278;2023-03-01T05:19:29;4.95;;;2.95;;
4466;SDS011;2246;42.664;23.278;2023-03-01T05:21:56;5.17;;;3.03;;
4466;SDS011;2246;42.664;23.278;2023-03-01T05:24:32;6.00;;;3.50;;
4466;SDS011;2246;42.664;23.278;2023-03-01T05:26:58;5.18;;;3.28;;
4466;SDS011;2246;42.664;23.278;2023-03-01T05:29:25;5.32;;;2.92;;
4466;SDS011;2246;42.664;23.278;2023-03-01T05:31:52;4.38;;;2.70;;
4466;SDS011;2246;42.664;23.278;2023-03-01T05:34:18;5.07;;;3.00;;
4466;SDS011;2246;42.664;23.278;2023-03-01T05:36:47;5.18;;;3.13;;
4466;SDS011;2246;42.664;23.278;2023-03-01T05:39:13;4.40;;;3.08;;
4466;SDS011;2246;42.664;23.278;2023-03-01T05:41:40;5.22;;;3.03;;
4466;SDS011;2246;42.664;23.278;2023-03-01T05:44:06;3.45;;;2.70;;
4466;SDS011;2246;42.664;23.278;2023-03-01T05:46:32;7.97;;;2.60;;
4466;SDS011;2246;42.664;23.278;2023-03-01T05:48:58;6.38;;;2.92;;
4466;SDS011;2246;42.664;23.278;2023-03-01T05:51:25;4.05;;;2.58;;
4466;SDS011;2246;42.664;23.278;2023-03-01T05:53:51;4.25;;;2.85;;
4466;SDS011;2246;42.664;23.278;2023-03-01T05:56:17;5.07;;;3.03;;
4466;SDS011;2246;42.664;23.278;2023-03-01T05:58:43;3.85;;;2.40;;
4466;SDS011;2246;42.664;23.278;2023-03-01T06:01:12;5.45;;;3.03;;
4466;SDS011;2246;42.664;23.278;2023-03-01T06:03:38;3.90;;;2.42;;
4466;SDS011;2246;42.664;23.278;2023-03-01T06:06:04;4.50;;;2.80;;
4466;SDS011;2246;42.664;23.278;2023-03-01T06:08:30;9.48;;;2.42;;
4466;SDS011;2246;42.664;23.278;2023-03-01T06:10:56;4.80;;;2.58;;
4466;SDS011;2246;42.664;23.278;2023-03-01T06:13:23;5.90;;;3.00;;
4466;SDS011;2246;42.664;23.278;2023-03-01T06:15:49;4.88;;;2.70;;
4466;SDS011;2246;42.664;23.278;2023-03-01T06:18:15;3.50;;;2.15;;
4466;SDS011;2246;42.664;23.278;2023-03-01T06:20:41;3.30;;;2.00;;
4466;SDS011;2246;42.664;23.278;2023-03-01T06:23:07;5.18;;;2.42;;
4466;SDS011;2246;42.664;23.278;2023-03-01T06:25:33;3.35;;;1.73;;
4466;SDS011;2246;42.664;23.278;2023-03-01T06:27:59;4.53;;;2.33;;
4466;SDS011;2246;42.664;23.278;2023-03-01T06:30:25;5.45;;;2.45;;
4466;SDS011;2246;42.664;23.278;2023-03-01T06:32:52;6.22;;;2.75;;
4466;SDS011;2246;42.664;23.278;2023-03-01T06:35:26;5.35;;;3.42;;
4466;SDS011;2246;42.664;23.278;2023-03-01T06:37:54;4.75;;;2.53;;
4466;SDS011;2246;42.664;23.278;2023-03-01T06:40:21;5.75;;;3.15;;
4466;SDS011;2246;42.664;23.278;2023-03-01T06:42:47;4.55;;;3.00;;
4466;SDS011;2246;42.664;23.278;2023-03-01T06:45:14;5.95;;;2.55;;
4466;SDS011;2246;42.664;23.278;2023-03-01T06:47:40;4.65;;;2.65;;
4466;SDS011;2246;42.664;23.278;2023-03-01T06:50:06;6.20;;;2.85;;
4466;SDS011;2246;42.664;23.278;2023-03-01T06:52:32;5.10;;;2.58;;
4466;SDS011;2246;42.664;23.278;2023-03-01T06:54:59;7.30;;;2.53;;
4466;SDS011;2246;42.664;23.278;2023-03-01T06:57:25;3.47;;;2.35;;
4466;SDS011;2246;42.664;23.278;2023-03-01T06:59:51;4.53;;;2.28;;
4466;SDS011;2246;42.664;23.278;2023-03-01T07:02:18;4.40;;;2.33;;
4466;SDS011;2246;42.664;23.278;2023-03-01T07:04:44;4.90;;;2.40;;
4466;SDS011;2246;42.664;23.278;2023-03-01T07:07:10;3.63;;;2.30;;
4466;SDS011;2246;42.664;23.278;2023-03-01T07:09:36;4.10;;;2.63;;
4466;SDS011;2246;42.664;23.278;2023-03-01T07:12:02;4.43;;;2.00;;
4466;SDS011;2246;42.664;23.278;2023-03-01T07:14:28;4.93;;;2.22;;
4466;SDS011;2246;42.664;23.278;2023-03-01T07:16:55;4.65;;;2.25;;
4466;SDS011;2246;42.664;23.278;2023-03-01T07:19:21;5.90;;;2.50;;
4466;SDS011;2246;42.664;23.278;2023-03-01T07:21:47;4.00;;;2.30;;
4466;SDS011;2246;42.664;23.278;2023-03-01T07:24:14;3.33;;;2.00;;
4466;SDS011;2246;42.664;23.278;2023-03-01T07:26:40;2.95;;;2.05;;
4466;SDS011;2246;42.664;23.278;2023-03-01T07:29:07;2.63;;;2.00;;
4466;SDS011;2246;42.664;23.278;2023-03-01T07:31:34;4.78;;;2.10;;
4466;SDS011;2246;42.664;23.278;2023-03-01T07:34:00;4.15;;;2.35;;
4466;SDS011;2246;42.664;23.278;2023-03-01T07:36:26;3.28;;;1.90;;
4466;SDS011;2246;42.664;23.278;2023-03-01T07:38:52;4.63;;;2.08;;
4466;SDS011;2246;42.664;23.278;2023-03-01T07:41:20;3.20;;;2.00;;
4466;SDS011;2246;42.664;23.278;2023-03-01T07:43:46;5.00;;;2.00;;
4466;SDS011;2246;42.664;23.278;2023-03-01T07:46:12;3.92;;;2.40;;
4466;SDS011;2246;42.664;23.278;2023-03-01T07:48:39;4.15;;;2.38;;
4466;SDS011;2246;42.664;23.278;2023-03-01T07:51:05;4.50;;;2.65;;
4466;SDS011;2246;42.664;23.278;2023-03-01T07:53:32;5.95;;;2.60;;
4466;SDS011;2246;42.664;23.278;2023-03-01T07:56:09;8.30;;;2.40;;
4466;SDS011;2246;42.664;23.278;2023-03-01T07:58:36;3.25;;;2.28;;
4466;SDS011;2246;42.664;23.278;2023-03-01T08:01:05;11.63;;;2.55;;
4466;SDS011;2246;42.664;23.278;2023-03-01T08:03:31;6.90;;;2.47;;
4466;SDS011;2246;42.664;23.278;2023-03-01T08:06:01;5.43;;;2.13;;
4466;SDS011;2246;42.664;23.278;2023-03-01T08:08:27;5.13;;;2.60;;
4466;SDS011;2246;42.664;23.278;2023-03-01T08:10:56;3.78;;;2.08;;
4466;SDS011;2246;42.664;23.278;2023-03-01T08:13:22;3.08;;;2.13;;
4466;SDS011;2246;42.664;23.278;2023-03-01T08:15:48;3.60;;;2.15;;
4466;SDS011;2246;42.664;23.278;2023-03-01T08:18:15;4.90;;;2.50;;
4466;SDS011;2246;42.664;23.278;2023-03-01T08:20:41;3.72;;;2.17;;
4466;SDS011;2246;42.664;23.278;2023-03-01T08:23:07;3.00;;;2.10;;
4466;SDS011;2246;42.664;23.278;2023-03-01T08:25:34;4.05;;;2.38;;
4466;SDS011;2246;42.664;23.278;2023-03-01T08:28:00;3.97;;;2.97;;
4466;SDS011;2246;42.664;23.278;2023-03-01T08:30:26;9.88;;;3.90;;
4466;SDS011;2246;42.664;23.278;2023-03-01T08:32:52;6.47;;;4.30;;
4466;SDS011;2246;42.664;23.278;2023-03-01T08:35:18;9.93;;;4.53;;
4466;SDS011;2246;42.664;23.278;2023-03-01T08:37:45;10.73;;;4.55;;
4466;SDS011;2246;42.664;23.278;2023-03-01T08:40:11;10.27;;;4.50;;
4466;SDS011;2246;42.664;23.278;2023-03-01T08:42:38;4.65;;;2.97;;
4466;SDS011;2246;42.664;23.278;2023-03-01T08:45:05;7.72;;;3.10;;
4466;SDS011;2246;42.664;23.278;2023-03-01T08:47:31;4.38;;;3.22;;
4466;SDS011;2246;42.664;23.278;2023-03-01T08:49:58;5.07;;;2.80;;
4466;SDS011;2246;42.664;23.278;2023-03-01T08:52:24;3.28;;;2.33;;
4466;SDS011;2246;42.664;23.278;2023-03-01T08:54:50;4.40;;;2.25;;
4466;SDS011;2246;42.664;23.278;2023-03-01T08:57:17;6.75;;;2.70;;
4466;SDS011;2246;42.664;23.278;2023-03-01T08:59:43;2.97;;;2.40;;
4466;SDS011;2246;42.664;23.278;2023-03-01T09:02:13;4.07;;;2.47;;
4466;SDS011;2246;42.664;23.278;2023-03-01T09:04:39;3.95;;;2.45;;
4466;SDS011;2246;42.664;23.278;2023-03-01T09:07:06;4.15;;;2.67;;
4466;SDS011;2246;42.664;23.278;2023-03-01T09:09:32;4.22;;;2.50;;
4466;SDS011;2246;42.664;23.278;2023-03-01T09:11:58;5.15;;;3.10;;
4466;SDS011;2246;42.664;23.278;2023-03-01T09:14:24;10.52;;;3.08;;
4466;SDS011;2246;42.664;23.278;2023-03-01T09:16:50;5.00;;;2.40;;
4466;SDS011;2246;42.664;23.278;2023-03-01T09:19:16;6.50;;;2.25;;
4466;SDS011;2246;42.664;23.278;2023-03-01T09:21:42;6.15;;;2.75;;
4466;SDS011;2246;42.664;23.278;2023-03-01T09:24:19;4.18;;;2.97;;
4466;SDS011;2246;42.664;23.278;2023-03-01T09:26:45;3.28;;;2.45;;
4466;SDS011;2246;42.664;23.278;2023-03-01T09:29:12;3.63;;;2.50;;
4466;SDS011;2246;42.664;23.278;2023-03-01T09:31:39;5.45;;;3.05;;
4466;SDS011;2246;42.664;23.278;2023-03-01T09:34:05;4.78;;;2.20;;
4466;SDS011;2246;42.664;23.278;2023-03-01T09:36:31;5.00;;;2.63;;
4466;SDS011;2246;42.664;23.278;2023-03-01T09:38:58;3.38;;;2.55;;
4466;SDS011;2246;42.664;23.278;2023-03-01T09:44:00;7.05;;;2.45;;
4466;SDS011;2246;42.664;23.278;2023-03-01T09:46:37;6.95;;;2.65;;
4466;SDS011;2246;42.664;23.278;2023-03-01T09:49:06;5.65;;;2.40;;
4466;SDS011;2246;42.664;23.278;2023-03-01T09:51:33;3.45;;;2.10;;
4466;SDS011;2246;42.664;23.278;2023-03-01T09:54:03;8.55;;;2.38;;
4466;SDS011;2246;42.664;23.278;2023-03-01T09:59:15;3.53;;;2.10;;
4466;SDS011;2246;42.664;23.278;2023-03-01T10:04:39;3.72;;;2.08;;
4466;SDS011;2246;42.664;23.278;2023-03-01T10:09:37;7.30;;;2.42;;
4466;SDS011;2246;42.664;23.278;2023-03-01T10:12:04;4.32;;;1.98;;
4466;SDS011;2246;42.664;23.278;2023-03-01T10:17:37;3.33;;;2.08;;
4466;SDS011;2246;42.664;23.278;2023-03-01T10:22:49;4.63;;;2.42;;
4466;SDS011;2246;42.664;23.278;2023-03-01T10:26:06;4.85;;;2.20;;
4466;SDS011;2246;42.664;23.278;2023-03-01T10:30:39;5.63;;;2.90;;
4466;SDS011;2246;42.664;23.278;2023-03-01T10:33:14;4.40;;;2.35;;
4466;SDS011;2246;42.664;23.278;2023-03-01T10:35:42;6.35;;;2.63;;
4466;SDS011;2246;42.664;23.278;2023-03-01T10:38:09;6.72;;;2.85;;
4466;SDS011;2246;42.664;23.278;2023-03-01T10:40:36;4.55;;;2.42;;
4466;SDS011;2246;42.664;23.278;2023-03-01T10:43:15;5.20;;;2.40;;
4466;SDS011;2246;42.664;23.278;2023-03-01T10:45:41;4.80;;;2.90;;
4466;SDS011;2246;42.664;23.278;2023-03-01T10:48:20;3.92;;;2.42;;
4466;SDS011;2246;42.664;23.278;2023-03-01T10:51:12;4.80;;;2.60;;
4466;SDS011;2246;42.664;23.278;2023-03-01T10:53:48;3.72;;;2.47;;
4466;SDS011;2246;42.664;23.278;2023-03-01T10:56:16;3.75;;;2.47;;
4466;SDS011;2246;42.664;23.278;2023-03-01T10:59:03;9.25;;;2.78;;
4466;SDS011;2246;42.664;23.278;2023-03-01T11:01:33;4.82;;;2.88;;
4466;SDS011;2246;42.664;23.278;2023-03-01T11:06:35;5.57;;;2.45;;
4466;SDS011;2246;42.664;23.278;2023-03-01T11:09:14;5.03;;;2.78;;
4466;SDS011;2246;42.664;23.278;2023-03-01T11:11:41;5.10;;;2.97;;
4466;SDS011;2246;42.664;23.278;2023-03-01T11:14:12;4.35;;;2.60;;
4466;SDS011;2246;42.664;23.278;2023-03-01T11:16:40;5.97;;;2.92;;
4466;SDS011;2246;42.664;23.278;2023-03-01T11:24:11;5.90;;;3.00;;
4466;SDS011;2246;42.664;23.278;2023-03-01T11:26:39;4.30;;;2.80;;
4466;SDS011;2246;42.664;23.278;2023-03-01T11:29:07;4.53;;;3.10;;
4466;SDS011;2246;42.664;23.278;2023-03-01T11:31:38;7.97;;;3.35;;
4466;SDS011;2246;42.664;23.278;2023-03-01T11:34:07;4.88;;;2.65;;
4466;SDS011;2246;42.664;23.278;2023-03-01T11:44:41;4.25;;;3.10;;
4466;SDS011;2246;42.664;23.278;2023-03-01T12:02:11;5.10;;;3.47;;
4466;SDS011;2246;42.664;23.278;2023-03-01T12:10:06;7.40;;;3.80;;
4466;SDS011;2246;42.664;23.278;2023-03-01T12:17:50;4.00;;;3.10;;
4466;SDS011;2246;42.664;23.278;2023-03-01T12:27:51;4.97;;;3.38;;
4466;SDS011;2246;42.664;23.278;2023-03-01T12:30:43;4.57;;;3.40;;
4466;SDS011;2246;42.664;23.278;2023-03-01T12:33:26;8.50;;;3.55;;
4466;SDS011;2246;42.664;23.278;2023-03-01T12:38:25;5.22;;;3.60;;
4466;SDS011;2246;42.664;23.278;2023-03-01T12:51:11;9.93;;;3.35;;
4466;SDS011;2246;42.664;23.278;2023-03-01T12:53:40;4.75;;;3.10;;
4466;SDS011;2246;42.664;23.278;2023-03-01T12:56:14;3.90;;;3.08;;
4466;SDS011;2246;42.664;23.278;2023-03-01T13:06:27;4.40;;;2.95;;
4466;SDS011;2246;42.664;23.278;2023-03-01T13:08:59;7.35;;;2.95;;
4466;SDS011;2246;42.664;23.278;2023-03-01T13:11:31;5.45;;;2.85;;
4466;SDS011;2246;42.664;23.278;2023-03-01T13:21:57;4.03;;;3.22;;
4466;SDS011;2246;42.664;23.278;2023-03-01T13:24:26;4.97;;;2.95;;
4466;SDS011;2246;42.664;23.278;2023-03-01T13:32:35;5.88;;;3.22;;
4466;SDS011;2246;42.664;23.278;2023-03-01T13:35:39;6.70;;;3.85;;
4466;SDS011;2246;42.664;23.278;2023-03-01T13:37:49;6.32;;;3.33;;
4466;SDS011;2246;42.664;23.278;2023-03-01T13:42:48;5.95;;;3.40;;
4466;SDS011;2246;42.664;23.278;2023-03-01T13:47:49;6.72;;;3.17;;
4466;SDS011;2246;42.664;23.278;2023-03-01T13:50:20;6.25;;;3.30;;
4466;SDS011;2246;42.664;23.278;2023-03-01T13:52:48;6.70;;;3.63;;
4466;SDS011;2246;42.664;23.278;2023-03-01T13:55:17;7.68;;;3.60;;
4466;SDS011;2246;42.664;23.278;2023-03-01T13:57:48;5.07;;;3.28;;
4466;SDS011;2246;42.664;23.278;2023-03-01T14:00:35;5.28;;;3.58;;
4466;SDS011;2246;42.664;23.278;2023-03-01T14:05:28;7.53;;;3.43;;
4466;SDS011;2246;42.664;23.278;2023-03-01T14:07:55;6.80;;;3.47;;
4466;SDS011;2246;42.664;23.278;2023-03-01T14:10:21;7.50;;;4.00;;
4466;SDS011;2246;42.664;23.278;2023-03-01T14:15:19;5.65;;;3.40;;
4466;SDS011;2246;42.664;23.278;2023-03-01T14:20:33;8.95;;;3.72;;
4466;SDS011;2246;42.664;23.278;2023-03-01T14:23:08;5.82;;;3.22;;
4466;SDS011;2246;42.664;23.278;2023-03-01T14:25:35;5.93;;;3.45;;
4466;SDS011;2246;42.664;23.278;2023-03-01T14:28:03;7.32;;;3.63;;
4466;SDS011;2246;42.664;23.278;2023-03-01T14:30:31;8.43;;;4.10;;
4466;SDS011;2246;42.664;23.278;2023-03-01T14:32:58;6.70;;;3.70;;
4466;SDS011;2246;42.664;23.278;2023-03-01T14:35:28;5.22;;;3.00;;
4466;SDS011;2246;42.664;23.278;2023-03-01T14:37:55;5.70;;;3.60;;
4466;SDS011;2246;42.664;23.278;2023-03-01T14:40:23;7.35;;;3.58;;
4466;SDS011;2246;42.664;23.278;2023-03-01T14:42:49;6.43;;;3.30;;
4466;SDS011;2246;42.664;23.278;2023-03-01T14:45:15;10.82;;;3.75;;
4466;SDS011;2246;42.664;23.278;2023-03-01T14:47:43;6.97;;;3.88;;
4466;SDS011;2246;42.664;23.278;2023-03-01T14:52:45;8.02;;;3.47;;
4466;SDS011;2246;42.664;23.278;2023-03-01T14:55:19;5.30;;;3.28;;
4466;SDS011;2246;42.664;23.278;2023-03-01T14:57:48;4.90;;;3.17;;
4466;SDS011;2246;42.664;23.278;2023-03-01T15:00:22;5.47;;;3.70;;
4466;SDS011;2246;42.664;23.278;2023-03-01T15:02:50;7.80;;;3.63;;
4466;SDS011;2246;42.664;23.278;2023-03-01T15:05:18;6.05;;;3.70;;
4466;SDS011;2246;42.664;23.278;2023-03-01T15:07:46;9.68;;;3.40;;
4466;SDS011;2246;42.664;23.278;2023-03-01T15:10:23;5.63;;;3.00;;
4466;SDS011;2246;42.664;23.278;2023-03-01T15:12:50;4.85;;;3.22;;
4466;SDS011;2246;42.664;23.278;2023-03-01T15:18:04;4.63;;;2.70;;
4466;SDS011;2246;42.664;23.278;2023-03-01T15:23:00;5.25;;;2.70;;
4466;SDS011;2246;42.664;23.278;2023-03-01T15:25:27;9.95;;;2.97;;
4466;SDS011;2246;42.664;23.278;2023-03-01T15:27:54;4.80;;;3.42;;
4466;SDS011;2246;42.664;23.278;2023-03-01T15:30:22;6.90;;;3.63;;
4466;SDS011;2246;42.664;23.278;2023-03-01T15:32:59;5.82;;;3.47;;
4466;SDS011;2246;42.664;23.278;2023-03-01T15:35:44;7.78;;;4.38;;
4466;SDS011;2246;42.664;23.278;2023-03-01T15:40:51;6.38;;;4.13;;
4466;SDS011;2246;42.664;23.278;2023-03-01T15:48:50;10.20;;;4.22;;
4466;SDS011;2246;42.664;23.278;2023-03-01T15:51:17;6.85;;;3.45;;
4466;SDS011;2246;42.664;23.278;2023-03-01T15:53:51;14.55;;;4.63;;
4466;SDS011;2246;42.664;23.278;2023-03-01T15:56:18;6.72;;;3.90;;
4466;SDS011;2246;42.664;23.278;2023-03-01T15:58:44;9.52;;;4.25;;
4466;SDS011;2246;42.664;23.278;2023-03-01T16:01:14;6.20;;;3.95;;
4466;SDS011;2246;42.664;23.278;2023-03-01T16:03:41;6.47;;;3.53;;
4466;SDS011;2246;42.664;23.278;2023-03-01T16:06:10;8.68;;;4.38;;
4466;SDS011;2246;42.664;23.278;2023-03-01T16:08:37;5.68;;;3.33;;
4466;SDS011;2246;42.664;23.278;2023-03-01T16:11:04;7.38;;;3.95;;
4466;SDS011;2246;42.664;23.278;2023-03-01T16:13:31;9.05;;;3.50;;
4466;SDS011;2246;42.664;23.278;2023-03-01T16:15:58;7.13;;;3.63;;
4466;SDS011;2246;42.664;23.278;2023-03-01T16:18:24;5.82;;;3.20;;
4466;SDS011;2246;42.664;23.278;2023-03-01T16:20:50;6.50;;;3.70;;
4466;SDS011;2246;42.664;23.278;2023-03-01T16:23:17;11.23;;;4.20;;
4466;SDS011;2246;42.664;23.278;2023-03-01T16:25:43;10.45;;;4.68;;
4466;SDS011;2246;42.664;23.278;2023-03-01T16:28:10;6.00;;;3.65;;
4466;SDS011;2246;42.664;23.278;2023-03-01T16:30:37;6.53;;;3.80;;
4466;SDS011;2246;42.664;23.278;2023-03-01T16:35:32;6.45;;;3.40;;
4466;SDS011;2246;42.664;23.278;2023-03-01T16:37:59;7.40;;;3.90;;
4466;SDS011;2246;42.664;23.278;2023-03-01T16:40:27;6.15;;;3.40;;
4466;SDS011;2246;42.664;23.278;2023-03-01T16:42:54;10.35;;;3.85;;
4466;SDS011;2246;42.664;23.278;2023-03-01T16:45:24;11.43;;;3.75;;
4466;SDS011;2246;42.664;23.278;2023-03-01T16:47:50;8.20;;;3.70;;
4466;SDS011;2246;42.664;23.278;2023-03-01T16:50:16;6.72;;;3.88;;
4466;SDS011;2246;42.664;23.278;2023-03-01T16:52:42;8.85;;;4.00;;
4466;SDS011;2246;42.664;23.278;2023-03-01T16:55:08;6.88;;;3.47;;
4466;SDS011;2246;42.664;23.278;2023-03-01T16:57:35;11.30;;;3.97;;
4466;SDS011;2246;42.664;23.278;2023-03-01T17:00:01;9.38;;;4.30;;
4466;SDS011;2246;42.664;23.278;2023-03-01T17:02:29;10.13;;;4.85;;
4466;SDS011;2246;42.664;23.278;2023-03-01T17:04:55;6.75;;;3.75;;
4466;SDS011;2246;42.664;23.278;2023-03-01T17:07:22;6.38;;;3.85;;
4466;SDS011;2246;42.664;23.278;2023-03-01T17:09:48;11.85;;;4.30;;
4466;SDS011;2246;42.664;23.278;2023-03-01T17:12:14;7.10;;;3.75;;
4466;SDS011;2246;42.664;23.278;2023-03-01T17:14:41;5.47;;;3.17;;
4466;SDS011;2246;42.664;23.278;2023-03-01T17:17:08;5.13;;;3.30;;
4466;SDS011;2246;42.664;23.278;2023-03-01T17:19:34;8.00;;;3.83;;
4466;SDS011;2246;42.664;23.278;2023-03-01T17:22:03;13.40;;;3.60;;
4466;SDS011;2246;42.664;23.278;2023-03-01T17:24:32;8.38;;;3.70;;
4466;SDS011;2246;42.664;23.278;2023-03-01T17:26:58;6.63;;;3.45;;
4466;SDS011;2246;42.664;23.278;2023-03-01T17:29:24;8.52;;;3.88;;
4466;SDS011;2246;42.664;23.278;2023-03-01T17:31:50;7.55;;;4.20;;
4466;SDS011;2246;42.664;23.278;2023-03-01T17:34:18;9.30;;;3.78;;
4466;SDS011;2246;42.664;23.278;2023-03-01T17:36:44;10.98;;;4.28;;